Time;durP1;ratioP1;P1;durP2;ratioP2;P2;SDS_P1;SDS_P2;PMS_P1;PMS_P2;Temp;Humidity;BMP_temperature;BMP_pressure;BME280_temperature;BME280_humidity;BME280_pressure;Samples;Min_cycle;Max_cycle;Signal;HPM_P1;HPM_P2
2023/01/10 00:00:23;;;;;;;17.77;3.58;;;;;;;;;;4984395;28;100524;-74
2023/01/10 00:02:50;;;;;;;16.00;3.35;;;;;;;;;;4982137;28;99081;-73
2023/01/10 00:05:17;;;;;;;19.00;3.13;;;;;;;;;;4983347;28;99399;-73
2023/01/10 00:07:44;;;;;;;18.45;2.85;;;;;;;;;;4984619;28;100443;-74
2023/01/10 00:10:11;;;;;;;22.40;3.75;;;;;;;;;;4984287;28;99926;-74
2023/01/10 00:15:22;;;;;;;20.65;3.45;;;;;;;;;;4971809;28;100129;-73
2023/01/10 00:17:48;;;;;;;14.60;3.30;;;;;;;;;;4976645;28;99408;-73
2023/01/10 00:20:15;;;;;;;12.27;3.13;;;;;;;;;;4984090;28;100677;-73
2023/01/10 00:22:41;;;;;;;18.27;3.38;;;;;;;;;;4984471;28;100229;-72
2023/01/10 00:25:08;;;;;;;13.32;2.42;;;;;;;;;;4984114;28;99884;-73
2023/01/10 00:27:37;;;;;;;24.30;3.33;;;;;;;;;;4978272;28;100234;-73
2023/01/10 00:30:12;;;;;;;21.33;3.50;;;;;;;;;;4980504;28;99350;-74
2023/01/10 00:32:43;;;;;;;14.82;2.90;;;;;;;;;;4979104;28;100069;-74
2023/01/10 00:35:10;;;;;;;16.88;3.38;;;;;;;;;;4984533;28;99148;-74
2023/01/10 00:37:37;;;;;;;23.15;4.38;;;;;;;;;;4984379;28;100016;-74
2023/01/10 00:40:07;;;;;;;16.48;2.97;;;;;;;;;;4983399;28;100440;-74
2023/01/10 00:45:19;;;;;;;14.60;2.78;;;;;;;;;;4981293;28;99022;-73
2023/01/10 00:47:45;;;;;;;16.02;3.75;;;;;;;;;;4980596;28;99910;-73
2023/01/10 00:50:12;;;;;;;17.48;3.50;;;;;;;;;;4981228;28;98599;-73
2023/01/10 00:52:38;;;;;;;21.98;3.95;;;;;;;;;;4983437;28;100168;-73
2023/01/10 00:55:05;;;;;;;17.38;2.72;;;;;;;;;;4977380;28;100715;-72
2023/01/10 00:57:31;;;;;;;13.65;3.47;;;;;;;;;;4983934;28;99976;-73
2023/01/10 00:59:58;;;;;;;27.45;3.70;;;;;;;;;;4981437;28;100172;-74
2023/01/10 01:02:24;;;;;;;20.25;2.95;;;;;;;;;;4977166;28;99626;-74
2023/01/10 01:04:51;;;;;;;19.02;3.75;;;;;;;;;;4977236;28;100078;-73
2023/01/10 01:07:17;;;;;;;19.05;3.75;;;;;;;;;;4983347;28;99456;-73
2023/01/10 01:12:28;;;;;;;27.52;3.47;;;;;;;;;;4980632;28;99602;-73
2023/01/10 01:14:55;;;;;;;18.75;3.70;;;;;;;;;;4980534;28;99034;-74
2023/01/10 01:17:21;;;;;;;15.00;3.30;;;;;;;;;;4965903;28;99854;-74
2023/01/10 01:19:47;;;;;;;14.82;3.53;;;;;;;;;;4977227;28;101421;-74
2023/01/10 01:22:14;;;;;;;16.98;3.72;;;;;;;;;;4984101;28;99105;-74
2023/01/10 01:24:40;;;;;;;13.52;3.55;;;;;;;;;;4984643;28;99998;-73
2023/01/10 01:27:07;;;;;;;22.08;3.55;;;;;;;;;;4977426;28;99641;-74
2023/01/10 01:29:33;;;;;;;18.35;3.28;;;;;;;;;;4983774;28;99880;-74
2023/01/10 01:32:08;;;;;;;17.45;3.10;;;;;;;;;;4976172;28;100715;-73
2023/01/10 01:34:35;;;;;;;15.65;3.22;;;;;;;;;;4983181;28;99853;-73
2023/01/10 01:37:01;;;;;;;18.88;3.08;;;;;;;;;;4969069;28;100973;-73
2023/01/10 01:39:28;;;;;;;17.30;3.00;;;;;;;;;;4981374;28;100268;-73
2023/01/10 01:41:57;;;;;;;21.38;4.45;;;;;;;;;;4983629;28;99981;-73
2023/01/10 01:44:28;;;;;;;16.48;3.35;;;;;;;;;;4978286;28;99373;-74
2023/01/10 01:47:04;;;;;;;17.23;3.45;;;;;;;;;;4983060;28;100281;-73
2023/01/10 01:49:31;;;;;;;18.50;3.28;;;;;;;;;;4983508;28;99545;-73
2023/01/10 01:52:01;;;;;;;17.88;4.10;;;;;;;;;;4982839;28;99990;-74
2023/01/10 01:54:28;;;;;;;17.60;3.13;;;;;;;;;;4986838;28;99853;-72
2023/01/10 01:56:58;;;;;;;26.17;4.60;;;;;;;;;;4981751;28;100195;-73
2023/01/10 01:59:29;;;;;;;26.67;3.95;;;;;;;;;;4978484;28;100450;-73
2023/01/10 02:01:59;;;;;;;14.20;4.03;;;;;;;;;;4976584;28;99943;-73
2023/01/10 02:04:27;;;;;;;24.27;3.92;;;;;;;;;;4983011;28;99158;-73
2023/01/10 02:06:55;;;;;;;16.02;3.95;;;;;;;;;;4984018;28;99371;-73
2023/01/10 02:09:28;;;;;;;16.95;4.22;;;;;;;;;;4982988;28;100347;-74
2023/01/10 02:11:55;;;;;;;21.33;4.68;;;;;;;;;;4982677;28;99698;-73
2023/01/10 02:14:23;;;;;;;25.67;4.28;;;;;;;;;;4984353;28;99485;-73
2023/01/10 02:16:49;;;;;;;20.55;3.28;;;;;;;;;;4986335;28;100230;-73
2023/01/10 02:19:36;;;;;;;24.73;4.05;;;;;;;;;;4970961;28;99555;-73
2023/01/10 02:22:14;;;;;;;15.82;3.47;;;;;;;;;;4969461;28;100072;-74
2023/01/10 02:24:59;;;;;;;20.02;3.25;;;;;;;;;;4974425;28;100009;-74
2023/01/10 02:27:26;;;;;;;22.88;3.33;;;;;;;;;;4971396;28;98592;-73
2023/01/10 02:30:14;;;;;;;26.25;3.63;;;;;;;;;;4981147;28;100032;-73
2023/01/10 02:32:45;;;;;;;18.52;4.10;;;;;;;;;;4975623;28;100490;-72
2023/01/10 02:35:50;;;;;;;19.50;4.70;;;;;;;;;;4967677;28;100343;-73
2023/01/10 02:38:38;;;;;;;12.85;3.13;;;;;;;;;;4974018;28;99349;-73
2023/01/10 02:41:14;;;;;;;15.75;3.13;;;;;;;;;;4989931;28;99159;-73
2023/01/10 02:43:50;;;;;;;24.77;3.45;;;;;;;;;;4979489;28;100339;-73
2023/01/10 02:46:23;;;;;;;22.27;3.88;;;;;;;;;;4983911;28;100120;-73
2023/01/10 02:48:54;;;;;;;19.23;3.78;;;;;;;;;;4974657;28;101478;-73
2023/01/10 02:51:21;;;;;;;19.02;3.40;;;;;;;;;;4985084;28;100160;-74
2023/01/10 02:53:52;;;;;;;27.05;4.10;;;;;;;;;;4981302;28;100821;-73
2023/01/10 02:56:32;;;;;;;21.38;3.72;;;;;;;;;;4984177;28;100824;-74
2023/01/10 02:59:01;;;;;;;14.02;3.58;;;;;;;;;;4986400;28;99951;-73
2023/01/10 03:01:27;;;;;;;22.60;3.80;;;;;;;;;;4985037;28;100862;-73
2023/01/10 03:04:15;;;;;;;19.30;4.70;;;;;;;;;;4985391;28;100165;-73
2023/01/10 03:06:53;;;;;;;18.40;3.35;;;;;;;;;;4986263;28;100014;-73
2023/01/10 03:09:32;;;;;;;23.50;3.75;;;;;;;;;;4974700;28;100456;-74
2023/01/10 03:12:08;;;;;;;24.65;3.90;;;;;;;;;;4969791;28;99922;-74
2023/01/10 03:14:36;;;;;;;17.50;3.70;;;;;;;;;;4973347;28;99014;-74
2023/01/10 03:17:04;;;;;;;21.35;3.45;;;;;;;;;;4984948;28;99540;-74
2023/01/10 03:19:33;;;;;;;18.77;2.92;;;;;;;;;;4987338;28;100071;-73
2023/01/10 03:22:00;;;;;;;19.65;3.60;;;;;;;;;;4980054;28;99297;-73
2023/01/10 03:24:32;;;;;;;18.17;3.60;;;;;;;;;;4983618;28;100430;-74
2023/01/10 03:27:14;;;;;;;42.43;4.30;;;;;;;;;;4978819;28;100105;-73
2023/01/10 03:29:47;;;;;;;21.17;3.97;;;;;;;;;;4986746;28;100447;-73
2023/01/10 03:32:16;;;;;;;21.13;3.95;;;;;;;;;;4979326;28;99829;-73
2023/01/10 03:34:42;;;;;;;23.38;4.38;;;;;;;;;;4985515;28;100369;-73
2023/01/10 03:37:12;;;;;;;19.88;4.13;;;;;;;;;;4985082;28;100574;-73
2023/01/10 03:39:41;;;;;;;19.58;4.15;;;;;;;;;;4985693;28;100088;-73
2023/01/10 03:42:12;;;;;;;21.75;3.92;;;;;;;;;;4967635;28;99935;-73
2023/01/10 03:44:47;;;;;;;20.17;3.50;;;;;;;;;;4973927;28;99646;-73
2023/01/10 03:47:32;;;;;;;10.73;3.20;;;;;;;;;;4982945;28;99948;-73
2023/01/10 03:50:03;;;;;;;27.75;4.22;;;;;;;;;;4984142;28;100290;-73
2023/01/10 03:52:31;;;;;;;22.13;3.65;;;;;;;;;;4984302;28;100301;-73
2023/01/10 03:54:58;;;;;;;23.70;4.20;;;;;;;;;;4986232;28;99750;-74
2023/01/10 03:57:25;;;;;;;27.08;5.97;;;;;;;;;;4983987;28;100402;-73
2023/01/10 03:59:53;;;;;;;16.20;3.63;;;;;;;;;;4985414;28;100007;-74
2023/01/10 04:02:20;;;;;;;18.17;4.13;;;;;;;;;;4983825;28;99427;-74
2023/01/10 04:04:46;;;;;;;25.25;4.45;;;;;;;;;;4982232;28;100226;-73
2023/01/10 04:07:12;;;;;;;32.58;4.43;;;;;;;;;;4983251;28;100011;-74
2023/01/10 04:09:39;;;;;;;15.48;3.67;;;;;;;;;;4987182;28;100089;-74
2023/01/10 04:12:05;;;;;;;28.40;4.38;;;;;;;;;;4984008;28;99986;-74
2023/01/10 04:14:32;;;;;;;20.27;3.63;;;;;;;;;;4985743;28;100341;-74
2023/01/10 04:16:58;;;;;;;22.25;3.60;;;;;;;;;;4984459;28;100386;-73
2023/01/10 04:19:25;;;;;;;28.10;4.07;;;;;;;;;;4967842;28;100357;-74
2023/01/10 04:21:52;;;;;;;30.38;4.40;;;;;;;;;;4974143;28;99952;-74
2023/01/10 04:24:18;;;;;;;28.60;3.60;;;;;;;;;;4984816;28;99853;-74
2023/01/10 04:26:44;;;;;;;30.83;4.22;;;;;;;;;;4984314;28;98612;-74
2023/01/10 04:29:11;;;;;;;23.77;4.60;;;;;;;;;;4984585;28;100302;-74
2023/01/10 04:31:38;;;;;;;24.58;4.90;;;;;;;;;;4987956;28;99468;-74
2023/01/10 04:34:08;;;;;;;26.13;4.57;;;;;;;;;;4984376;28;100542;-74
2023/01/10 04:36:35;;;;;;;28.05;4.78;;;;;;;;;;4984659;28;100520;-74
2023/01/10 04:39:02;;;;;;;22.08;4.05;;;;;;;;;;4984962;28;100057;-74
2023/01/10 04:41:29;;;;;;;26.65;4.70;;;;;;;;;;4984149;28;99372;-74
2023/01/10 04:43:55;;;;;;;36.90;5.35;;;;;;;;;;4983659;28;100392;-73
2023/01/10 04:46:21;;;;;;;20.95;3.42;;;;;;;;;;4985914;28;99074;-73
2023/01/10 04:48:48;;;;;;;23.70;4.47;;;;;;;;;;4972367;28;99975;-74
2023/01/10 04:51:14;;;;;;;22.60;4.32;;;;;;;;;;4982184;28;99483;-74
2023/01/10 04:53:41;;;;;;;24.85;4.60;;;;;;;;;;4986677;28;98559;-74
2023/01/10 04:56:08;;;;;;;19.10;3.92;;;;;;;;;;4984906;28;100246;-74
2023/01/10 04:58:36;;;;;;;31.85;5.05;;;;;;;;;;4984697;28;99221;-73
2023/01/10 05:01:09;;;;;;;30.95;5.50;;;;;;;;;;4983392;28;99249;-73
2023/01/10 05:03:36;;;;;;;27.67;4.10;;;;;;;;;;4991624;28;99674;-73
2023/01/10 05:06:03;;;;;;;38.05;4.97;;;;;;;;;;4971424;28;99958;-73
2023/01/10 05:08:29;;;;;;;30.52;4.85;;;;;;;;;;4973437;28;101114;-73
2023/01/10 05:10:56;;;;;;;16.30;3.75;;;;;;;;;;4983775;28;99497;-74
2023/01/10 05:13:23;;;;;;;28.92;4.47;;;;;;;;;;4987077;28;98963;-74
2023/01/10 05:15:52;;;;;;;20.92;5.13;;;;;;;;;;4984547;28;100199;-74
2023/01/10 05:18:19;;;;;;;28.65;5.65;;;;;;;;;;4984832;28;100095;-74
2023/01/10 05:20:45;;;;;;;14.68;3.78;;;;;;;;;;4983773;28;99969;-74
2023/01/10 05:23:11;;;;;;;39.67;5.20;;;;;;;;;;4985089;28;99644;-74
2023/01/10 05:25:38;;;;;;;29.52;4.90;;;;;;;;;;4971896;28;99129;-73
2023/01/10 05:28:04;;;;;;;25.08;5.03;;;;;;;;;;4971232;28;99911;-74
2023/01/10 05:30:30;;;;;;;31.38;4.78;;;;;;;;;;4984115;28;100495;-74
2023/01/10 05:32:57;;;;;;;30.83;4.32;;;;;;;;;;4983619;28;99903;-74
2023/01/10 05:35:23;;;;;;;31.30;4.90;;;;;;;;;;4976021;28;99962;-74
2023/01/10 05:37:49;;;;;;;27.05;4.60;;;;;;;;;;4982738;28;99445;-74
2023/01/10 05:40:16;;;;;;;31.75;5.13;;;;;;;;;;4978227;28;99087;-74
2023/01/10 05:42:42;;;;;;;37.97;5.75;;;;;;;;;;4984822;28;100154;-73
2023/01/10 05:45:09;;;;;;;28.65;4.70;;;;;;;;;;4984639;28;100075;-73
2023/01/10 05:47:35;;;;;;;27.60;4.50;;;;;;;;;;4984023;28;100007;-72
2023/01/10 05:50:02;;;;;;;33.10;4.88;;;;;;;;;;4978301;28;99286;-73
2023/01/10 05:52:28;;;;;;;22.05;4.03;;;;;;;;;;4984277;28;99091;-73
2023/01/10 05:54:54;;;;;;;22.73;5.13;;;;;;;;;;4979957;28;100699;-73
2023/01/10 05:57:23;;;;;;;30.15;4.60;;;;;;;;;;4991074;28;99616;-73
2023/01/10 05:59:50;;;;;;;23.38;4.60;;;;;;;;;;4981648;28;100107;-73
2023/01/10 06:02:16;;;;;;;23.30;4.60;;;;;;;;;;4987072;28;99348;-73
2023/01/10 06:04:43;;;;;;;25.85;5.13;;;;;;;;;;4975075;28;100025;-73
2023/01/10 06:07:09;;;;;;;24.67;4.70;;;;;;;;;;4986247;28;99975;-73
2023/01/10 06:09:35;;;;;;;21.95;4.10;;;;;;;;;;4982056;28;100472;-73
2023/01/10 06:12:02;;;;;;;33.08;5.40;;;;;;;;;;4986054;28;99177;-73
2023/01/10 06:14:28;;;;;;;28.17;5.10;;;;;;;;;;4982974;28;98631;-73
2023/01/10 06:16:54;;;;;;;29.60;4.47;;;;;;;;;;4981807;28;98895;-73
2023/01/10 06:19:21;;;;;;;33.35;5.60;;;;;;;;;;4982382;28;101070;-73
2023/01/10 06:21:47;;;;;;;29.42;7.13;;;;;;;;;;4976968;28;100209;-73
2023/01/10 06:24:13;;;;;;;41.55;6.95;;;;;;;;;;4987054;28;100188;-73
2023/01/10 06:26:40;;;;;;;21.50;4.53;;;;;;;;;;4989097;28;99250;-73
2023/01/10 06:29:06;;;;;;;29.58;5.32;;;;;;;;;;4977132;28;99333;-73
2023/01/10 06:31:32;;;;;;;26.25;4.63;;;;;;;;;;4987410;28;99401;-73
2023/01/10 06:33:59;;;;;;;26.88;4.85;;;;;;;;;;4985506;28;99175;-73
2023/01/10 06:36:25;;;;;;;35.50;5.78;;;;;;;;;;4986921;28;98773;-72
2023/01/10 06:38:52;;;;;;;34.30;5.68;;;;;;;;;;4974937;28;100209;-74
2023/01/10 06:41:18;;;;;;;19.38;3.83;;;;;;;;;;4975251;28;99172;-73
2023/01/10 06:43:45;;;;;;;38.83;5.55;;;;;;;;;;4978833;28;99795;-73
2023/01/10 06:46:16;;;;;;;32.58;5.47;;;;;;;;;;4974424;28;100847;-73
2023/01/10 06:48:44;;;;;;;35.45;5.55;;;;;;;;;;4982644;28;100150;-73
2023/01/10 06:51:11;;;;;;;31.88;5.03;;;;;;;;;;4985745;28;100349;-73
2023/01/10 06:53:38;;;;;;;33.70;6.00;;;;;;;;;;4985614;28;100082;-73
2023/01/10 06:56:04;;;;;;;40.05;6.80;;;;;;;;;;4986673;28;100269;-73
2023/01/10 06:58:31;;;;;;;45.40;6.43;;;;;;;;;;4986411;28;99707;-73
2023/01/10 07:00:58;;;;;;;33.95;5.43;;;;;;;;;;4993415;28;99897;-73
2023/01/10 07:03:24;;;;;;;33.03;5.38;;;;;;;;;;4988999;28;98940;-73
2023/01/10 07:05:51;;;;;;;33.85;5.53;;;;;;;;;;4985409;28;99903;-73
2023/01/10 07:08:17;;;;;;;38.20;6.13;;;;;;;;;;4984795;28;100993;-73
2023/01/10 07:10:44;;;;;;;24.30;5.22;;;;;;;;;;4986490;28;100098;-73
2023/01/10 07:13:10;;;;;;;27.33;6.03;;;;;;;;;;4979024;28;99583;-72
2023/01/10 07:15:36;;;;;;;31.42;5.38;;;;;;;;;;4983635;28;100061;-73
2023/01/10 07:18:03;;;;;;;32.28;6.10;;;;;;;;;;4979809;28;99543;-74
2023/01/10 07:20:29;;;;;;;34.15;5.70;;;;;;;;;;4980913;28;103650;-72
2023/01/10 07:22:57;;;;;;;26.85;6.45;;;;;;;;;;4988073;28;100437;-73
2023/01/10 07:25:24;;;;;;;27.70;5.30;;;;;;;;;;4985967;28;100341;-73
2023/01/10 07:27:50;;;;;;;51.00;6.60;;;;;;;;;;4984598;28;99495;-72
2023/01/10 07:30:16;;;;;;;33.17;8.15;;;;;;;;;;4979255;28;99174;-72
2023/01/10 07:32:43;;;;;;;29.52;5.20;;;;;;;;;;4977554;28;99900;-72
2023/01/10 07:35:09;;;;;;;23.92;4.93;;;;;;;;;;4977627;28;99299;-73
2023/01/10 07:37:36;;;;;;;34.78;5.05;;;;;;;;;;4974137;28;100017;-73
2023/01/10 07:40:02;;;;;;;36.03;6.32;;;;;;;;;;4978783;28;99948;-73
2023/01/10 07:42:28;;;;;;;35.35;5.80;;;;;;;;;;4986097;28;99529;-73
2023/01/10 07:44:55;;;;;;;35.38;5.68;;;;;;;;;;4986886;28;99595;-74
2023/01/10 07:47:21;;;;;;;37.00;6.85;;;;;;;;;;4982867;28;99276;-73
2023/01/10 07:49:47;;;;;;;35.20;5.95;;;;;;;;;;4986541;28;98976;-73
2023/01/10 07:52:14;;;;;;;46.58;5.78;;;;;;;;;;4985618;28;99285;-73
2023/01/10 07:54:40;;;;;;;38.65;5.75;;;;;;;;;;4984022;28;99794;-73
2023/01/10 07:57:07;;;;;;;29.30;6.40;;;;;;;;;;4985127;28;99581;-73
2023/01/10 07:59:33;;;;;;;31.48;5.93;;;;;;;;;;4983270;28;99867;-74
2023/01/10 08:01:59;;;;;;;34.10;6.05;;;;;;;;;;4980656;28;99492;-73
2023/01/10 08:04:26;;;;;;;31.63;6.07;;;;;;;;;;4985951;28;99367;-73
2023/01/10 08:06:55;;;;;;;32.17;5.22;;;;;;;;;;4988975;28;99240;-73
2023/01/10 08:09:22;;;;;;;34.67;6.55;;;;;;;;;;4979463;28;100277;-73
2023/01/10 08:11:48;;;;;;;36.80;6.18;;;;;;;;;;4985496;28;99904;-73
2023/01/10 08:14:14;;;;;;;28.80;5.65;;;;;;;;;;4983435;28;99596;-73
2023/01/10 08:16:41;;;;;;;28.95;5.28;;;;;;;;;;4982485;28;100441;-73
2023/01/10 08:19:07;;;;;;;36.75;7.07;;;;;;;;;;4981926;28;100120;-73
2023/01/10 08:21:33;;;;;;;32.88;7.28;;;;;;;;;;4980109;28;101136;-71
2023/01/10 08:24:00;;;;;;;31.15;6.18;;;;;;;;;;4978856;28;100020;-72
2023/01/10 08:26:26;;;;;;;25.55;6.60;;;;;;;;;;4982030;28;99972;-73
2023/01/10 08:28:53;;;;;;;28.85;5.82;;;;;;;;;;4981793;28;100347;-73
2023/01/10 08:31:19;;;;;;;36.30;7.57;;;;;;;;;;4971696;28;98736;-74
2023/01/10 08:33:46;;;;;;;39.10;7.22;;;;;;;;;;4966549;28;99276;-74
2023/01/10 08:36:16;;;;;;;30.80;6.68;;;;;;;;;;4965312;28;98984;-73
2023/01/10 08:38:43;;;;;;;33.50;7.50;;;;;;;;;;4973698;28;99461;-73
2023/01/10 08:41:09;;;;;;;29.67;6.00;;;;;;;;;;4985719;28;99919;-73
2023/01/10 08:43:35;;;;;;;27.95;6.07;;;;;;;;;;4982008;28;99992;-73
2023/01/10 08:46:02;;;;;;;31.60;7.72;;;;;;;;;;4985125;28;99284;-72
2023/01/10 08:48:28;;;;;;;37.97;7.97;;;;;;;;;;4976677;28;100877;-72
2023/01/10 08:50:55;;;;;;;33.35;7.00;;;;;;;;;;4978724;28;100182;-73
2023/01/10 08:53:21;;;;;;;28.70;5.05;;;;;;;;;;4980829;28;100236;-72
2023/01/10 08:55:48;;;;;;;33.50;7.25;;;;;;;;;;4979076;28;99680;-72
2023/01/10 08:58:14;;;;;;;25.40;5.53;;;;;;;;;;4978321;28;100901;-72
2023/01/10 09:00:41;;;;;;;35.67;6.65;;;;;;;;;;4975442;28;100272;-74
2023/01/10 09:03:07;;;;;;;21.25;7.75;;;;;;;;;;4974043;28;99163;-74
2023/01/10 09:05:33;;;;;;;31.58;6.30;;;;;;;;;;4977137;28;99486;-74
2023/01/10 09:08:00;;;;;;;40.83;7.70;;;;;;;;;;4974377;28;100874;-73
2023/01/10 09:10:27;;;;;;;26.08;5.93;;;;;;;;;;4975695;28;99435;-74
2023/01/10 09:12:55;;;;;;;21.58;6.35;;;;;;;;;;4974345;28;100535;-73
2023/01/10 09:15:23;;;;;;;34.28;6.25;;;;;;;;;;4977090;28;99957;-73
2023/01/10 09:17:56;;;;;;;26.67;6.95;;;;;;;;;;4978992;28;99833;-73
2023/01/10 09:20:24;;;;;;;33.85;6.05;;;;;;;;;;4976297;28;99325;-74
2023/01/10 09:22:50;;;;;;;28.77;6.43;;;;;;;;;;4973046;28;99953;-74
2023/01/10 09:25:17;;;;;;;35.08;6.43;;;;;;;;;;4976893;28;101818;-73
2023/01/10 09:27:43;;;;;;;29.05;5.82;;;;;;;;;;4972556;28;99683;-74
2023/01/10 09:30:10;;;;;;;32.83;7.05;;;;;;;;;;4975817;28;100719;-73
2023/01/10 09:32:36;;;;;;;32.72;6.03;;;;;;;;;;4985523;28;100293;-73
2023/01/10 09:35:03;;;;;;;25.20;5.78;;;;;;;;;;4974470;28;100211;-73
2023/01/10 09:37:32;;;;;;;34.38;7.28;;;;;;;;;;4980079;28;100642;-74
2023/01/10 09:39:58;;;;;;;25.83;5.95;;;;;;;;;;4974548;28;99840;-74
2023/01/10 09:42:28;;;;;;;35.45;5.75;;;;;;;;;;4974484;28;100177;-73
2023/01/10 09:45:04;;;;;;;31.13;6.50;;;;;;;;;;4972227;28;99191;-74
2023/01/10 09:47:56;;;;;;;32.13;6.43;;;;;;;;;;4977250;28;99487;-73
2023/01/10 09:50:46;;;;;;;27.40;5.77;;;;;;;;;;4974965;28;100202;-73
2023/01/10 09:53:12;;;;;;;32.22;6.38;;;;;;;;;;4979125;28;100462;-73
2023/01/10 09:55:39;;;;;;;25.50;5.90;;;;;;;;;;4983463;28;100759;-73
2023/01/10 09:58:09;;;;;;;40.95;5.93;;;;;;;;;;4977762;28;100229;-73
2023/01/10 10:00:38;;;;;;;23.10;5.00;;;;;;;;;;4981584;28;99956;-74
2023/01/10 10:03:13;;;;;;;30.10;6.93;;;;;;;;;;4979795;28;101033;-74
2023/01/10 10:05:40;;;;;;;30.42;6.20;;;;;;;;;;4980918;28;99849;-74
2023/01/10 10:08:12;;;;;;;34.55;8.57;;;;;;;;;;4974891;28;99542;-74
2023/01/10 10:10:41;;;;;;;27.80;5.73;;;;;;;;;;4979376;28;98979;-74
2023/01/10 10:13:26;;;;;;;35.17;6.22;;;;;;;;;;4970557;28;99885;-74
2023/01/10 10:16:13;;;;;;;29.40;5.75;;;;;;;;;;4974883;27;99568;-74
2023/01/10 10:18:48;;;;;;;39.35;6.15;;;;;;;;;;4975842;28;98136;-74
2023/01/10 10:21:17;;;;;;;32.95;6.07;;;;;;;;;;4973297;28;100423;-74
2023/01/10 10:23:49;;;;;;;35.55;5.97;;;;;;;;;;4980825;28;99670;-75
2023/01/10 10:26:26;;;;;;;28.83;5.90;;;;;;;;;;4983011;28;100613;-74
2023/01/10 10:29:05;;;;;;;23.55;4.65;;;;;;;;;;4977043;28;100227;-74
2023/01/10 10:31:37;;;;;;;23.38;5.43;;;;;;;;;;4984401;28;99886;-74
2023/01/10 10:34:03;;;;;;;24.95;4.55;;;;;;;;;;4977572;28;100202;-76
2023/01/10 10:36:38;;;;;;;26.48;5.57;;;;;;;;;;4978143;28;100442;-74
2023/01/10 10:39:05;;;;;;;28.85;5.50;;;;;;;;;;4981900;28;100073;-75
2023/01/10 10:41:37;;;;;;;37.80;6.88;;;;;;;;;;4981162;28;99900;-73
2023/01/10 10:44:18;;;;;;;22.13;5.95;;;;;;;;;;4973187;28;99730;-73
2023/01/10 10:46:45;;;;;;;28.35;5.80;;;;;;;;;;4972378;28;99549;-73
2023/01/10 10:49:38;;;;;;;20.83;5.10;;;;;;;;;;4979029;28;100268;-73
2023/01/10 10:52:10;;;;;;;23.85;5.78;;;;;;;;;;4972591;28;101121;-73
2023/01/10 10:54:37;;;;;;;20.38;5.35;;;;;;;;;;4976582;28;100025;-74
2023/01/10 10:57:03;;;;;;;26.48;5.95;;;;;;;;;;4981316;28;100171;-73
2023/01/10 10:59:30;;;;;;;30.05;5.78;;;;;;;;;;4970387;28;99961;-73
2023/01/10 11:01:56;;;;;;;25.38;5.72;;;;;;;;;;4976951;28;100208;-72
2023/01/10 11:04:23;;;;;;;24.60;5.43;;;;;;;;;;4988516;28;99641;-73
2023/01/10 11:06:50;;;;;;;29.70;5.63;;;;;;;;;;4981851;28;99601;-74
2023/01/10 11:09:40;;;;;;;18.63;4.18;;;;;;;;;;4981120;28;99409;-73
2023/01/10 11:12:12;;;;;;;24.27;4.80;;;;;;;;;;4982158;28;100556;-73
2023/01/10 11:14:43;;;;;;;24.45;5.05;;;;;;;;;;4979338;28;100232;-73
2023/01/10 11:17:26;;;;;;;26.30;4.88;;;;;;;;;;4979996;28;101288;-72
2023/01/10 11:20:05;;;;;;;32.72;5.05;;;;;;;;;;4981863;28;100815;-72
2023/01/10 11:22:48;;;;;;;27.70;6.25;;;;;;;;;;4980223;28;99719;-73
2023/01/10 11:25:15;;;;;;;24.52;5.05;;;;;;;;;;4975830;28;99682;-74
2023/01/10 11:27:52;;;;;;;28.67;6.20;;;;;;;;;;4982224;28;100145;-73
2023/01/10 11:30:26;;;;;;;26.90;4.90;;;;;;;;;;4979160;28;100175;-74
2023/01/10 11:32:53;;;;;;;27.73;5.10;;;;;;;;;;4978446;28;100358;-73
2023/01/10 11:35:20;;;;;;;23.33;5.68;;;;;;;;;;4982601;28;99922;-73
2023/01/10 11:38:05;;;;;;;27.13;5.45;;;;;;;;;;4974205;28;99482;-73
2023/01/10 11:40:33;;;;;;;29.13;6.50;;;;;;;;;;4974052;28;100132;-73
2023/01/10 11:43:19;;;;;;;24.92;5.18;;;;;;;;;;4980474;28;100153;-73
2023/01/10 11:45:51;;;;;;;18.45;4.43;;;;;;;;;;4976543;28;100213;-73
2023/01/10 11:48:21;;;;;;;23.55;4.50;;;;;;;;;;4981498;28;98979;-73
2023/01/10 11:51:15;;;;;;;21.27;4.93;;;;;;;;;;4979522;28;100098;-73
2023/01/10 11:53:42;;;;;;;15.98;4.55;;;;;;;;;;4974213;28;99885;-73
2023/01/10 11:56:09;;;;;;;16.08;4.30;;;;;;;;;;4978255;28;100500;-73
2023/01/10 11:58:37;;;;;;;20.63;4.45;;;;;;;;;;4978672;28;100280;-73
2023/01/10 12:01:03;;;;;;;24.33;4.10;;;;;;;;;;4978464;28;100349;-72
2023/01/10 12:03:31;;;;;;;22.25;4.70;;;;;;;;;;4981995;28;99153;-73
2023/01/10 12:05:59;;;;;;;28.27;5.57;;;;;;;;;;4982390;28;99851;-74
2023/01/10 12:08:27;;;;;;;31.50;5.75;;;;;;;;;;4978735;28;99939;-74
2023/01/10 12:11:18;;;;;;;22.35;4.10;;;;;;;;;;4978495;28;100418;-73
2023/01/10 12:13:51;;;;;;;20.98;5.15;;;;;;;;;;4977209;28;101484;-73
2023/01/10 12:16:20;;;;;;;28.17;4.82;;;;;;;;;;4967551;28;99914;-74
2023/01/10 12:18:48;;;;;;;27.50;5.07;;;;;;;;;;4980093;28;100156;-73
2023/01/10 12:21:16;;;;;;;18.70;5.28;;;;;;;;;;4980141;28;99157;-74
2023/01/10 12:23:43;;;;;;;23.40;5.43;;;;;;;;;;4980090;28;99169;-74
2023/01/10 12:26:12;;;;;;;26.63;4.85;;;;;;;;;;4979570;28;99652;-74
2023/01/10 12:28:41;;;;;;;29.42;4.85;;;;;;;;;;4983439;28;99981;-74
2023/01/10 12:31:13;;;;;;;15.88;3.78;;;;;;;;;;4972729;28;100044;-73
2023/01/10 12:33:45;;;;;;;24.65;5.10;;;;;;;;;;4978270;28;100133;-74
2023/01/10 12:36:12;;;;;;;;;;;;;;;;;;4974588;28;99980;-73
2023/01/10 12:44:34;;;;;;;30.73;5.18;;;;;;;;;;4972281;28;100350;-73
2023/01/10 12:47:03;;;;;;;22.27;4.15;;;;;;;;;;4982502;28;100108;-73
2023/01/10 12:49:37;;;;;;;14.95;3.92;;;;;;;;;;4980308;28;99919;-74
2023/01/10 12:52:06;;;;;;;17.92;3.80;;;;;;;;;;4983768;28;99111;-73
2023/01/10 12:54:33;;;;;;;17.10;4.65;;;;;;;;;;4985965;28;99264;-73
2023/01/10 12:57:01;;;;;;;16.65;3.80;;;;;;;;;;4987535;28;99958;-73
2023/01/10 12:59:36;;;;;;;26.35;5.53;;;;;;;;;;4982735;28;100120;-73
2023/01/10 13:02:05;;;;;;;30.83;4.40;;;;;;;;;;4976316;28;99831;-73
2023/01/10 13:04:33;;;;;;;26.42;4.75;;;;;;;;;;4983580;28;100005;-73
2023/01/10 13:07:00;;;;;;;21.73;4.32;;;;;;;;;;4984177;28;99328;-73
2023/01/10 13:09:27;;;;;;;25.15;5.03;;;;;;;;;;4985483;28;99453;-73
2023/01/10 13:12:08;;;;;;;24.85;4.38;;;;;;;;;;4986273;28;99958;-73
2023/01/10 13:14:40;;;;;;;14.45;4.13;;;;;;;;;;4978075;28;100826;-74
2023/01/10 13:17:26;;;;;;;21.05;5.68;;;;;;;;;;4983940;28;100008;-73
2023/01/10 13:20:12;;;;;;;30.50;4.40;;;;;;;;;;4984773;28;98576;-72
2023/01/10 13:22:38;;;;;;;25.00;5.35;;;;;;;;;;4983170;28;99341;-73
2023/01/10 13:25:05;;;;;;;28.17;4.47;;;;;;;;;;4980188;28;99935;-73
2023/01/10 13:27:32;;;;;;;26.38;4.03;;;;;;;;;;4983880;28;100493;-73
2023/01/10 13:29:59;;;;;;;21.15;5.13;;;;;;;;;;4983004;28;100291;-74
2023/01/10 13:32:29;;;;;;;22.90;4.93;;;;;;;;;;4974072;28;100075;-73
2023/01/10 13:35:09;;;;;;;21.77;4.55;;;;;;;;;;4977089;28;100116;-73
2023/01/10 13:37:37;;;;;;;22.10;3.83;;;;;;;;;;4977597;28;98984;-74
2023/01/10 13:40:04;;;;;;;36.63;5.20;;;;;;;;;;4979746;28;100163;-73
2023/01/10 13:45:18;;;;;;;23.63;4.22;;;;;;;;;;4970539;28;98592;-73
2023/01/10 13:47:46;;;;;;;23.98;4.60;;;;;;;;;;4980865;28;100193;-72
2023/01/10 13:50:21;;;;;;;20.02;4.50;;;;;;;;;;4974861;28;99983;-73
2023/01/10 13:52:51;;;;;;;29.00;4.55;;;;;;;;;;4977730;28;101272;-73
2023/01/10 13:55:23;;;;;;;24.27;4.15;;;;;;;;;;4975767;28;100257;-73
2023/01/10 13:57:54;;;;;;;19.95;4.57;;;;;;;;;;4971218;28;100124;-73
2023/01/10 14:03:28;;;;;;;25.40;5.25;;;;;;;;;;4980224;28;100199;-73
2023/01/10 14:05:54;;;;;;;23.67;5.00;;;;;;;;;;4972013;28;99274;-74
2023/01/10 14:08:21;;;;;;;29.95;5.38;;;;;;;;;;4975092;28;98820;-73
2023/01/10 14:11:03;;;;;;;18.42;4.60;;;;;;;;;;4978662;28;100162;-73
2023/01/10 14:13:29;;;;;;;19.65;4.50;;;;;;;;;;4975676;28;99232;-74
2023/01/10 14:15:55;;;;;;;32.85;5.07;;;;;;;;;;4965703;28;100166;-73
2023/01/10 14:18:22;;;;;;;17.00;4.72;;;;;;;;;;4976478;28;98943;-74
2023/01/10 14:21:01;;;;;;;19.92;4.57;;;;;;;;;;4975331;28;100302;-73
2023/01/10 14:23:41;;;;;;;24.35;5.10;;;;;;;;;;4987076;28;99100;-73
2023/01/10 14:26:25;;;;;;;23.05;5.63;;;;;;;;;;4983532;28;100279;-74
2023/01/10 14:28:52;;;;;;;27.80;5.38;;;;;;;;;;4969877;28;100689;-74
2023/01/10 14:31:20;;;;;;;22.38;5.75;;;;;;;;;;4982135;28;99479;-74
2023/01/10 14:33:47;;;;;;;17.95;4.50;;;;;;;;;;4977888;28;100100;-74
2023/01/10 14:36:15;;;;;;;25.13;5.63;;;;;;;;;;4975539;28;100386;-74
2023/01/10 14:38:42;;;;;;;15.60;4.15;;;;;;;;;;4977981;28;99894;-73
2023/01/10 14:41:35;;;;;;;18.45;3.83;;;;;;;;;;4976285;28;99400;-73
2023/01/10 14:44:02;;;;;;;27.92;5.85;;;;;;;;;;4970798;28;100850;-73
2023/01/10 14:46:31;;;;;;;21.33;4.90;;;;;;;;;;4982502;28;100638;-75
2023/01/10 14:48:59;;;;;;;28.10;4.80;;;;;;;;;;4987171;28;99183;-75
2023/01/10 14:51:27;;;;;;;24.13;5.10;;;;;;;;;;4986119;28;99841;-76
2023/01/10 14:54:10;;;;;;;28.55;5.05;;;;;;;;;;4977663;28;98918;-75
2023/01/10 14:56:38;;;;;;;25.10;5.65;;;;;;;;;;4976977;28;100238;-76